createdAt,value
2018-09-08T00:01:24.045Z,65.70
2018-09-08T00:03:52.289Z,65.70
2018-09-08T00:06:25.934Z,65.50
2018-09-08T00:08:54.272Z,65.30
2018-09-08T00:11:22.842Z,65.10
2018-09-08T00:13:51.542Z,65.10
2018-09-08T00:16:25.137Z,65.40
2018-09-08T00:18:59.251Z,64.70
2018-09-08T00:21:33.016Z,64.00
2018-09-08T00:24:06.642Z,63.80
2018-09-08T00:26:40.784Z,63.60
2018-09-08T00:29:14.529Z,63.90
2018-09-08T00:31:42.849Z,63.60
2018-09-08T00:34:11.154Z,63.60
2018-09-08T00:36:39.439Z,63.10
2018-09-08T00:39:08.766Z,62.90
2018-09-08T00:41:37.053Z,63.00
2018-09-08T00:44:05.366Z,63.00
2018-09-08T00:46:34.473Z,62.80
2018-09-08T00:49:02.737Z,62.80
2018-09-08T00:51:31.130Z,62.10
2018-09-08T00:53:59.901Z,61.90
2018-09-08T00:56:28.205Z,61.60
2018-09-08T00:59:01.768Z,61.80
2018-09-08T01:01:30.090Z,61.70
2018-09-08T01:03:59.038Z,61.80
2018-09-08T01:06:27.320Z,61.70
2018-09-08T01:08:55.563Z,61.70
2018-09-08T01:11:24.067Z,61.90
2018-09-08T01:13:52.334Z,61.50
2018-09-08T01:16:21.168Z,61.10
2018-09-08T01:18:49.458Z,61.10
2018-09-08T01:21:17.708Z,61.30
2018-09-08T01:23:51.845Z,61.30
2018-09-08T01:26:20.743Z,61.60
2018-09-08T01:28:49.865Z,60.80
2018-09-08T01:31:18.328Z,60.80
2018-09-08T01:33:46.874Z,61.00
2018-09-08T01:36:15.069Z,61.20
2018-09-08T01:38:43.262Z,60.90
2018-09-08T01:41:11.547Z,60.80
2018-09-08T01:43:39.960Z,60.40
2018-09-08T01:46:08.660Z,60.40
2018-09-08T01:48:36.869Z,60.40
2018-09-08T01:51:05.098Z,60.50
2018-09-08T01:53:33.304Z,60.40
2018-09-08T01:56:01.546Z,60.60
2018-09-08T01:58:29.895Z,60.60
2018-09-08T02:00:58.112Z,60.60
2018-09-08T02:03:26.586Z,60.20
2018-09-08T02:05:55.886Z,60.40
2018-09-08T02:08:24.187Z,60.70
2018-09-08T02:10:52.498Z,61.20
2018-09-08T02:13:20.780Z,61.20
2018-09-08T02:15:49.094Z,61.50
2018-09-08T02:18:17.266Z,61.10
2018-09-08T02:23:32.486Z,61.00
2018-09-08T02:26:02.317Z,60.80
2018-09-08T02:28:30.706Z,61.20
2018-09-08T02:30:58.865Z,61.40
2018-09-08T02:33:27.129Z,61.60
2018-09-08T02:35:55.342Z,62.10
2018-09-08T02:38:23.705Z,62.20
2018-09-08T02:40:51.932Z,62.40
2018-09-08T02:43:20.304Z,62.50
2018-09-08T02:45:48.519Z,62.70
2018-09-08T02:48:17.480Z,63.00
2018-09-08T02:50:44.716Z,63.20
2018-09-08T02:53:13.738Z,63.70
2018-09-08T02:55:41.389Z,63.80
2018-09-08T02:58:08.723Z,64.00
2018-09-08T03:00:36.036Z,64.30
2018-09-08T03:03:03.292Z,64.20
2018-09-08T03:05:30.528Z,64.40
2018-09-08T03:07:57.787Z,64.60
2018-09-08T03:10:25.041Z,64.90
2018-09-08T03:12:52.338Z,65.10
2018-09-08T03:15:19.593Z,65.30
2018-09-08T03:17:46.869Z,65.30
2018-09-08T03:20:14.148Z,65.50
2018-09-08T03:22:41.361Z,66.30
2018-09-08T03:25:08.682Z,65.50
2018-09-08T03:27:35.923Z,65.50
2018-09-08T03:30:03.187Z,65.60
2018-09-08T03:32:30.436Z,65.60
2018-09-08T03:34:57.693Z,65.40
2018-09-08T03:37:24.933Z,65.40
2018-09-08T03:39:52.220Z,64.90
2018-09-08T03:42:19.515Z,64.40
2018-09-08T03:44:46.854Z,64.40
2018-09-08T03:47:14.175Z,64.70
2018-09-08T03:49:41.539Z,65.00
2018-09-08T03:52:08.847Z,65.00
2018-09-08T03:54:36.089Z,64.90
2018-09-08T03:57:03.400Z,64.80
2018-09-08T03:59:30.740Z,64.80
2018-09-08T04:01:58.008Z,65.30
2018-09-08T04:04:26.622Z,65.90
2018-09-08T04:06:55.039Z,66.30
2018-09-08T04:09:23.372Z,66.80
2018-09-08T04:11:51.676Z,67.40
2018-09-08T04:14:20.265Z,67.80
2018-09-08T04:16:48.811Z,68.40
2018-09-08T04:19:17.239Z,68.80
2018-09-08T04:21:45.575Z,69.30
2018-09-08T04:24:13.840Z,69.60
2018-09-08T04:26:42.574Z,70.00
2018-09-08T04:29:11.226Z,70.20
2018-09-08T04:31:39.584Z,70.70
2018-09-08T04:34:07.838Z,70.20
2018-09-08T04:36:36.162Z,70.20
2018-09-08T04:39:06.869Z,69.80
2018-09-08T04:41:35.152Z,69.90
2018-09-08T04:44:03.425Z,69.90
2018-09-08T04:46:32.390Z,70.40
2018-09-08T04:49:00.692Z,70.70
2018-09-08T04:51:29.249Z,70.60
2018-09-08T04:54:03.996Z,70.60
2018-09-08T04:56:32.335Z,70.80
2018-09-08T04:59:01.448Z,70.60
2018-09-08T05:01:30.276Z,70.60
2018-09-08T05:03:58.617Z,70.60
2018-09-08T05:06:27.028Z,70.30
2018-09-08T05:08:55.436Z,70.20
2018-09-08T05:11:24.489Z,70.10
2018-09-08T05:13:52.767Z,70.20
2018-09-08T05:16:20.997Z,70.50
2018-09-08T05:18:49.290Z,70.60
2018-09-08T05:21:17.537Z,70.80
2018-09-08T05:23:45.770Z,70.80
2018-09-08T05:26:14.116Z,71.00
2018-09-08T05:28:42.405Z,70.90
2018-09-08T05:31:10.631Z,70.90
2018-09-08T05:33:38.880Z,71.00
2018-09-08T05:36:07.171Z,71.10
2018-09-08T05:38:35.676Z,71.10
2018-09-08T05:41:04.133Z,70.60
2018-09-08T05:43:32.456Z,70.30
2018-09-08T05:46:00.855Z,70.10
2018-09-08T05:48:29.249Z,69.90
2018-09-08T05:50:57.470Z,69.60
2018-09-08T05:53:25.809Z,69.50
2018-09-08T05:55:54.145Z,69.20
2018-09-08T05:58:22.571Z,68.40
2018-09-08T06:00:50.967Z,68.10
2018-09-08T06:03:19.224Z,67.40
2018-09-08T06:05:47.481Z,67.10
2018-09-08T06:08:15.865Z,66.90
2018-09-08T06:10:44.176Z,66.70
2018-09-08T06:13:13.130Z,66.50
2018-09-08T06:15:41.379Z,66.10
2018-09-08T06:18:09.825Z,65.90
2018-09-08T06:20:38.172Z,65.80
2018-09-08T06:23:06.396Z,65.40
2018-09-08T06:25:34.785Z,65.20
2018-09-08T06:28:03.157Z,64.90
2018-09-08T06:30:31.442Z,64.50
2018-09-08T06:32:59.752Z,64.30
2018-09-08T06:35:28.149Z,64.10
2018-09-08T06:37:56.733Z,63.80
2018-09-08T06:40:25.126Z,63.80
2018-09-08T06:42:53.593Z,63.80
2018-09-08T06:45:22.216Z,64.20
2018-09-08T06:47:50.787Z,63.90
2018-09-08T06:50:19.385Z,63.70
2018-09-08T06:52:47.639Z,63.50
2018-09-08T06:55:15.953Z,63.30
2018-09-08T06:57:44.843Z,62.90
2018-09-08T07:00:13.282Z,62.50
2018-09-08T07:02:41.930Z,62.30
2018-09-08T07:05:10.440Z,62.80
2018-09-08T07:07:38.769Z,60.50
2018-09-08T07:10:07.375Z,60.30
2018-09-08T07:12:36.008Z,59.30
2018-09-08T07:15:05.712Z,58.50
2018-09-08T07:17:34.087Z,57.90
2018-09-08T07:20:02.516Z,57.90
2018-09-08T07:22:31.085Z,57.40
2018-09-08T07:24:59.404Z,56.10
2018-09-08T07:27:28.738Z,56.10
2018-09-08T07:29:57.466Z,55.40
2018-09-08T07:32:25.940Z,54.80
2018-09-08T07:34:54.262Z,54.00
2018-09-08T07:37:22.924Z,53.90
2018-09-08T07:39:51.200Z,54.00
2018-09-08T07:42:20.070Z,54.00
2018-09-08T07:44:48.742Z,53.80
2018-09-08T07:47:17.157Z,53.90
2018-09-08T07:49:45.726Z,53.30
2018-09-08T07:52:15.043Z,52.90
2018-09-08T07:54:43.370Z,52.90
2018-09-08T07:57:11.907Z,52.70
2018-09-08T07:59:40.456Z,52.30
2018-09-08T08:02:08.907Z,52.50
2018-09-08T08:04:37.258Z,52.80
2018-09-08T08:07:10.085Z,52.10
2018-09-08T08:09:38.527Z,51.50
2018-09-08T08:12:06.980Z,52.70
2018-09-08T08:14:35.506Z,55.90
2018-09-08T08:17:03.733Z,52.60
2018-09-08T08:19:32.274Z,52.00
2018-09-08T08:22:00.611Z,51.20
2018-09-08T08:24:28.903Z,50.80
2018-09-08T08:26:57.758Z,51.10
2018-09-08T08:29:27.115Z,51.70
2018-09-08T08:31:56.200Z,52.20
2018-09-08T08:34:24.742Z,51.20
2018-09-08T08:36:53.151Z,50.90
2018-09-08T08:39:21.551Z,50.90
2018-09-08T08:41:49.975Z,51.40
2018-09-08T08:44:18.439Z,51.00
2018-09-08T08:46:47.889Z,51.00
2018-09-08T08:49:16.925Z,51.30
2018-09-08T08:51:56.702Z,51.30
2018-09-08T08:54:34.409Z,51.50
2018-09-08T08:57:02.859Z,51.40
2018-09-08T08:59:31.163Z,51.60
2018-09-08T09:02:00.057Z,51.60
2018-09-08T09:04:28.514Z,51.60
2018-09-08T09:06:57.357Z,51.40
2018-09-08T09:09:25.428Z,51.60
2018-09-08T09:11:54.339Z,52.00
2018-09-08T09:14:22.402Z,51.70
2018-09-08T09:16:50.773Z,51.80
2018-09-08T09:19:46.820Z,51.90
2018-09-08T09:22:27.728Z,51.70
2018-09-08T09:25:01.893Z,52.00
2018-09-08T09:27:33.767Z,52.40
2018-09-08T09:30:02.579Z,52.50
2018-09-08T09:32:31.489Z,52.00
2018-09-08T09:34:59.830Z,51.80
2018-09-08T09:37:28.893Z,51.80
2018-09-08T09:39:58.074Z,51.80
2018-09-08T09:42:26.513Z,51.70
2018-09-08T09:44:54.985Z,51.70
2018-09-08T09:47:23.353Z,51.70
2018-09-08T09:49:51.795Z,51.80
2018-09-08T09:52:20.386Z,51.70
2018-09-08T09:54:48.682Z,51.50
2018-09-08T09:57:18.456Z,51.60
2018-09-08T09:59:46.861Z,51.40
2018-09-08T10:02:45.533Z,51.30
2018-09-08T10:05:24.076Z,50.90
2018-09-08T10:07:53.297Z,50.80
2018-09-08T10:10:25.209Z,50.80
2018-09-08T10:12:53.481Z,50.90
2018-09-08T10:15:21.988Z,51.10
2018-09-08T10:17:50.267Z,51.40
2018-09-08T10:20:20.148Z,51.20
2018-09-08T10:22:48.627Z,51.10
2018-09-08T10:25:18.040Z,51.10
2018-09-08T10:27:47.352Z,51.20
2018-09-08T10:30:16.211Z,51.20
2018-09-08T10:32:45.467Z,50.90
2018-09-08T10:35:14.026Z,51.20
2018-09-08T10:37:42.287Z,50.50
2018-09-08T10:40:11.751Z,50.50
2018-09-08T10:42:40.176Z,49.70
2018-09-08T10:45:09.427Z,49.50
2018-09-08T10:47:38.210Z,49.90
2018-09-08T10:50:07.255Z,50.10
2018-09-08T10:59:26.390Z,50.50
2018-09-08T11:01:54.947Z,49.80
2018-09-08T11:04:23.162Z,49.90
2018-09-08T11:06:51.526Z,49.50
2018-09-08T11:09:19.895Z,49.10
2018-09-08T11:11:48.838Z,49.10
2018-09-08T11:14:17.244Z,49.10
2018-09-08T11:16:45.814Z,48.10
2018-09-08T11:19:14.290Z,48.20
2018-09-08T11:21:42.909Z,48.20
2018-09-08T11:24:11.288Z,48.60
2018-09-08T11:26:39.616Z,48.60
2018-09-08T11:29:08.268Z,48.30
2018-09-08T11:31:37.243Z,48.00
2018-09-08T11:34:07.615Z,47.80
2018-09-08T11:36:36.157Z,47.60
2018-09-08T11:39:05.364Z,47.90
2018-09-08T11:41:33.804Z,48.00
2018-09-08T11:44:02.720Z,47.80
2018-09-08T11:46:31.078Z,46.90
2018-09-08T11:48:59.758Z,47.20
2018-09-08T11:51:28.154Z,47.40
2018-09-08T11:53:56.784Z,46.90
2018-09-08T11:56:25.067Z,46.90
2018-09-08T11:58:53.552Z,47.20
2018-09-08T12:01:21.981Z,47.00
2018-09-08T12:03:50.439Z,47.30
2018-09-08T12:06:19.734Z,47.10
2018-09-08T12:08:48.939Z,47.00
2018-09-08T12:11:17.839Z,47.20
2018-09-08T12:13:46.144Z,47.20
2018-09-08T12:16:14.510Z,47.00
2018-09-08T12:18:42.866Z,46.60
2018-09-08T12:21:11.197Z,46.20
2018-09-08T12:23:39.540Z,45.90
2018-09-08T12:26:08.084Z,46.70
2018-09-08T12:28:36.394Z,46.60
2018-09-08T12:31:04.819Z,46.30
2018-09-08T12:33:33.424Z,46.50
2018-09-08T12:36:02.019Z,46.50
2018-09-08T12:38:30.898Z,46.50
2018-09-08T12:40:59.307Z,47.00
2018-09-08T12:43:27.565Z,46.50
2018-09-08T12:45:55.981Z,46.40
2018-09-08T12:48:24.568Z,46.40
2018-09-08T12:50:52.895Z,46.60
2018-09-08T12:53:21.400Z,46.50
2018-09-08T12:55:49.788Z,46.30
2018-09-08T12:58:18.479Z,46.20
2018-09-08T13:00:46.996Z,46.00
2018-09-08T13:03:15.702Z,46.40
2018-09-08T13:05:44.530Z,46.70
2018-09-08T13:08:12.934Z,46.40
2018-09-08T13:10:41.481Z,46.50
2018-09-08T13:13:11.135Z,46.60
2018-09-08T13:15:39.708Z,46.50
2018-09-08T13:18:08.285Z,47.20
2018-09-08T13:20:36.936Z,46.90
2018-09-08T13:23:06.734Z,47.10
2018-09-08T13:25:35.034Z,46.90
2018-09-08T13:28:03.337Z,46.70
2018-09-08T13:30:32.751Z,46.70
2018-09-08T13:33:03.277Z,46.20
2018-09-08T13:35:32.366Z,45.90
2018-09-08T13:38:00.626Z,46.60
2018-09-08T13:40:29.168Z,46.30
2018-09-08T13:42:57.777Z,46.10
2018-09-08T13:45:26.548Z,46.30
2018-09-08T13:47:54.864Z,46.10
2018-09-08T13:50:23.698Z,46.40
2018-09-08T13:52:52.155Z,46.20
2018-09-08T13:55:20.612Z,46.20
2018-09-08T13:57:49.198Z,46.60
2018-09-08T14:00:17.985Z,46.40
2018-09-08T14:02:46.362Z,46.10
2018-09-08T14:05:14.689Z,46.00
2018-09-08T14:07:48.760Z,46.10
2018-09-08T14:10:17.909Z,46.10
2018-09-08T14:12:46.191Z,46.40
2018-09-08T14:15:15.357Z,46.20
2018-09-08T14:17:43.944Z,45.80
2018-09-08T14:20:13.838Z,45.80
2018-09-08T14:22:42.251Z,46.20
2018-09-08T14:25:10.935Z,46.70
2018-09-08T14:27:39.372Z,46.50
2018-09-08T14:30:07.815Z,46.30
2018-09-08T14:32:36.231Z,45.60
2018-09-08T14:35:05.335Z,45.50
2018-09-08T14:37:34.841Z,45.90
2018-09-08T14:40:03.182Z,49.00
2018-09-08T14:42:31.666Z,46.80
2018-09-08T14:45:00.109Z,45.80
2018-09-08T14:47:32.354Z,45.50
2018-09-08T14:50:00.834Z,45.30
2018-09-08T14:52:29.189Z,45.10
2018-09-08T14:54:57.810Z,45.20
2018-09-08T14:57:26.110Z,45.30
2018-09-08T14:59:54.445Z,45.40
2018-09-08T15:02:22.847Z,45.60
2018-09-08T15:04:51.215Z,45.60
2018-09-08T15:07:19.559Z,45.30
2018-09-08T15:09:48.312Z,45.60
2018-09-08T15:12:16.885Z,45.90
2018-09-08T15:14:45.176Z,46.00
2018-09-08T15:17:16.571Z,45.90
2018-09-08T15:19:44.897Z,45.80
2018-09-08T15:22:13.304Z,45.70
2018-09-08T15:24:41.685Z,45.70
2018-09-08T15:27:10.243Z,46.00
2018-09-08T15:29:38.521Z,45.50
2018-09-08T15:32:06.830Z,45.20
2018-09-08T15:34:35.639Z,45.80
2018-09-08T15:37:04.118Z,45.50
2018-09-08T15:39:32.789Z,45.50
2018-09-08T15:42:02.750Z,45.60
2018-09-08T15:44:31.184Z,45.80
2018-09-08T15:46:59.507Z,45.80
2018-09-08T15:49:28.202Z,45.80
2018-09-08T15:51:57.028Z,46.00
2018-09-08T15:54:25.586Z,46.30
2018-09-08T15:56:54.023Z,46.00
2018-09-08T15:59:22.402Z,46.30
2018-09-08T16:01:51.201Z,46.10
2018-09-08T16:04:21.455Z,45.80
2018-09-08T16:06:50.480Z,46.10
2018-09-08T16:09:19.434Z,46.00
2018-09-08T16:11:47.916Z,46.00
2018-09-08T16:14:16.283Z,47.00
2018-09-08T16:16:46.000Z,46.90
2018-09-08T16:19:14.862Z,47.60
2018-09-08T16:21:43.247Z,48.00
2018-09-08T16:24:12.035Z,46.90
2018-09-08T16:26:40.501Z,46.30
2018-09-08T16:29:09.091Z,46.40
2018-09-08T16:31:39.716Z,46.90
2018-09-08T16:34:08.598Z,46.60
2018-09-08T16:36:36.940Z,46.20
2018-09-08T16:39:09.482Z,46.30
2018-09-08T16:41:40.440Z,46.30
2018-09-08T16:44:10.234Z,46.10
2018-09-08T16:46:38.538Z,46.10
2018-09-08T16:49:08.781Z,46.40
2018-09-08T16:51:37.345Z,46.60
2018-09-08T16:54:07.023Z,46.80
2018-09-08T16:56:35.848Z,46.90
2018-09-08T16:59:04.323Z,47.10
2018-09-08T17:01:32.701Z,47.20
2018-09-08T17:04:00.975Z,47.40
2018-09-08T17:06:29.437Z,47.60
2018-09-08T17:08:57.932Z,47.50
2018-09-08T17:11:26.602Z,47.20
2018-09-08T17:13:55.038Z,47.40
2018-09-08T17:16:23.758Z,47.30
2018-09-08T17:18:52.146Z,47.30
2018-09-08T17:21:20.468Z,47.40
2018-09-08T17:23:49.624Z,47.50
2018-09-08T17:26:18.170Z,47.60
2018-09-08T17:28:46.553Z,47.70
2018-09-08T17:31:15.229Z,47.80
2018-09-08T17:33:43.820Z,47.90
2018-09-08T17:36:12.175Z,48.10
2018-09-08T17:38:40.588Z,48.30
2018-09-08T17:41:09.037Z,48.40
2018-09-08T17:43:37.500Z,48.50
2018-09-08T17:46:06.237Z,48.60
2018-09-08T17:48:35.910Z,48.70
2018-09-08T17:51:04.552Z,49.00
2018-09-08T17:53:33.372Z,49.10
2018-09-08T17:56:02.216Z,49.40
2018-09-08T17:58:31.062Z,49.60
2018-09-08T18:01:00.022Z,49.80
2018-09-08T18:03:28.437Z,50.00
2018-09-08T18:05:56.906Z,50.30
2018-09-08T18:08:25.720Z,50.90
2018-09-08T18:10:55.214Z,50.40
2018-09-08T18:13:24.344Z,50.60
2018-09-08T18:15:52.797Z,50.80
2018-09-08T18:18:21.510Z,51.00
2018-09-08T18:20:50.046Z,51.10
2018-09-08T18:23:18.378Z,51.30
2018-09-08T18:25:46.595Z,51.40
2018-09-08T18:28:15.084Z,51.40
2018-09-08T18:30:43.379Z,51.50
2018-09-08T18:33:12.472Z,51.60
2018-09-08T18:35:41.120Z,51.60
2018-09-08T18:38:09.595Z,51.60
2018-09-08T18:40:38.003Z,51.50
2018-09-08T18:43:06.339Z,51.60
2018-09-08T18:45:34.816Z,51.60
2018-09-08T18:48:03.764Z,51.70
2018-09-08T18:50:32.338Z,52.00
2018-09-08T18:53:01.583Z,52.20
2018-09-08T18:55:30.101Z,52.10
2018-09-08T18:57:58.452Z,52.10
2018-09-08T19:00:26.798Z,52.10
2018-09-08T19:02:55.931Z,52.20
2018-09-08T19:05:24.291Z,52.20
2018-09-08T19:07:52.713Z,52.20
2018-09-08T19:10:21.073Z,52.20
2018-09-08T19:12:50.253Z,52.30
2018-09-08T19:15:19.211Z,52.40
2018-09-08T19:17:47.544Z,52.60
2018-09-08T19:20:21.301Z,52.50
2018-09-08T19:22:49.775Z,52.60
2018-09-08T19:25:18.178Z,52.60
2018-09-08T19:27:46.603Z,52.60
2018-09-08T19:30:15.064Z,52.50
2018-09-08T19:32:43.416Z,52.40
2018-09-08T19:35:45.459Z,52.40
2018-09-08T19:38:14.236Z,52.40
2018-09-08T19:40:45.994Z,52.30
2018-09-08T19:43:14.321Z,52.50
2018-09-08T19:45:42.689Z,52.60
2018-09-08T19:48:17.042Z,52.70
2018-09-08T19:50:45.349Z,52.80
2018-09-08T19:53:19.078Z,52.80
2018-09-08T19:55:47.333Z,52.90
2018-09-08T19:58:21.039Z,52.80
2018-09-08T20:00:51.507Z,53.00
2018-09-08T20:03:20.730Z,53.10
2018-09-08T20:05:49.395Z,53.00
2018-09-08T20:08:17.969Z,53.10
2018-09-08T20:10:47.232Z,53.10
2018-09-08T20:13:16.008Z,53.10
2018-09-08T20:15:44.929Z,53.00
2018-09-08T20:18:14.204Z,53.00
2018-09-08T20:20:42.765Z,53.10
2018-09-08T20:23:11.319Z,53.20
2018-09-08T20:25:40.297Z,53.20
2018-09-08T20:28:08.991Z,53.30
2018-09-08T20:30:37.560Z,53.30
2018-09-08T20:33:06.750Z,53.50
2018-09-08T20:35:35.411Z,53.60
2018-09-08T20:38:04.120Z,54.30
2018-09-08T20:40:32.550Z,54.70
2018-09-08T20:43:01.336Z,54.70
2018-09-08T20:45:29.950Z,55.00
2018-09-08T20:47:59.272Z,55.10
2018-09-08T20:50:29.194Z,55.00
2018-09-08T20:52:58.159Z,55.50
2018-09-08T20:55:26.816Z,55.50
2018-09-08T20:57:55.670Z,55.80
2018-09-08T21:00:24.364Z,55.40
2018-09-08T21:02:52.926Z,55.30
2018-09-08T21:05:22.020Z,55.30
2018-09-08T21:07:50.745Z,55.20
2018-09-08T21:10:19.233Z,54.70
2018-09-08T21:12:48.102Z,54.80
2018-09-08T21:15:16.786Z,54.80
2018-09-08T21:17:45.194Z,54.60
2018-09-08T21:20:13.564Z,54.80
2018-09-08T21:22:42.165Z,54.50
2018-09-08T21:25:10.953Z,55.00
2018-09-08T21:27:40.062Z,54.60
2018-09-08T21:30:09.340Z,54.30
2018-09-08T21:32:38.032Z,54.50
2018-09-08T21:35:08.059Z,54.40
2018-09-08T21:37:36.846Z,54.70
2018-09-08T21:40:05.370Z,54.40
2018-09-08T21:42:34.848Z,54.60
2018-09-08T21:45:05.304Z,55.00
2018-09-08T21:47:33.679Z,54.30
2018-09-08T21:50:02.467Z,54.40
2018-09-08T21:52:31.521Z,54.70
2018-09-08T21:54:59.901Z,54.20
2018-09-08T21:57:28.469Z,54.20
2018-09-08T21:59:57.291Z,54.10
2018-09-08T22:02:26.126Z,54.20
2018-09-08T22:04:55.515Z,54.20
2018-09-08T22:07:25.706Z,54.00
2018-09-08T22:09:54.687Z,53.90
2018-09-08T22:12:23.158Z,53.80
2018-09-08T22:14:51.561Z,53.50
2018-09-08T22:17:20.611Z,53.10
2018-09-08T22:19:49.067Z,53.10
2018-09-08T22:22:19.628Z,53.50
2018-09-08T22:24:48.197Z,54.10
2018-09-08T22:27:17.524Z,53.60
2018-09-08T22:29:46.142Z,53.80
2018-09-08T22:32:14.830Z,53.60
2018-09-08T22:34:43.516Z,53.60
2018-09-08T22:37:15.760Z,53.50
2018-09-08T22:39:44.826Z,53.70
2018-09-08T22:42:13.699Z,53.90
2018-09-08T22:44:42.216Z,54.00
2018-09-08T22:47:11.240Z,53.80
2018-09-08T22:49:41.665Z,53.40
2018-09-08T22:52:12.092Z,53.20
2018-09-08T22:54:40.847Z,53.10
2018-09-08T22:57:12.729Z,52.90
2018-09-08T22:59:42.639Z,52.70
2018-09-08T23:02:11.174Z,52.40
2018-09-08T23:04:39.624Z,52.00
2018-09-08T23:07:07.951Z,52.10
2018-09-08T23:09:37.183Z,51.80
2018-09-08T23:12:06.027Z,51.70
2018-09-08T23:14:34.379Z,51.70
2018-09-08T23:17:02.690Z,51.80
2018-09-08T23:19:30.937Z,51.80
2018-09-08T23:21:59.284Z,52.00
2018-09-08T23:24:27.642Z,52.10
2018-09-08T23:26:56.042Z,51.90
2018-09-08T23:29:24.602Z,51.90
2018-09-08T23:31:52.916Z,51.80
2018-09-08T23:34:21.239Z,51.80
2018-09-08T23:36:49.565Z,51.90
2018-09-08T23:39:18.675Z,51.80
2018-09-08T23:41:47.097Z,51.70
2018-09-08T23:44:15.721Z,51.50
2018-09-08T23:46:44.126Z,51.40
2018-09-08T23:49:12.734Z,51.40
2018-09-08T23:51:47.639Z,51.50
2018-09-08T23:54:16.180Z,51.90
2018-09-08T23:56:44.639Z,51.30
2018-09-08T23:59:13.790Z,51.10
